createdAt,value
2023-03-12T00:00:40.096Z,85.09
2023-03-12T00:05:44.616Z,84.15
2023-03-12T00:10:46.397Z,84.11
2023-03-12T00:15:48.813Z,84.55
2023-03-12T00:20:55.847Z,84.18
2023-03-12T00:26:01.833Z,84.50
2023-03-12T00:31:13.814Z,83.62
2023-03-12T00:36:17.462Z,83.49
2023-03-12T00:41:19.935Z,83.00
2023-03-12T00:46:22.676Z,83.18
2023-03-12T00:51:26.142Z,83.29
2023-03-12T00:56:28.200Z,83.05
2023-03-12T01:01:30.583Z,82.84
2023-03-12T01:06:34.571Z,82.68
2023-03-12T01:11:38.628Z,83.13
2023-03-12T01:16:41.058Z,83.21
2023-03-12T01:21:44.678Z,83.74
2023-03-12T01:26:47.078Z,84.10
2023-03-12T01:31:49.508Z,84.53
2023-03-12T01:36:52.983Z,84.78
2023-03-12T01:41:54.962Z,85.21
2023-03-12T01:46:57.385Z,86.28
2023-03-12T01:52:04.190Z,86.11
2023-03-12T01:57:10.546Z,85.17
2023-03-12T02:02:14.221Z,85.06
2023-03-12T02:07:18.163Z,83.49
2023-03-12T02:12:20.297Z,83.04
2023-03-12T02:17:22.182Z,83.24
2023-03-12T02:22:26.239Z,82.03
2023-03-12T02:27:30.339Z,81.79
2023-03-12T02:32:35.670Z,81.35
2023-03-12T02:37:48.360Z,80.17
2023-03-12T02:42:52.590Z,80.47
2023-03-12T02:47:54.684Z,80.43
2023-03-12T02:52:56.969Z,80.04
2023-03-12T02:58:00.079Z,80.34
2023-03-12T03:03:02.604Z,80.37
2023-03-12T03:08:05.727Z,79.35
2023-03-12T03:13:09.400Z,79.10
2023-03-12T03:18:11.626Z,79.08
2023-03-12T03:23:13.757Z,79.72
2023-03-12T03:28:17.323Z,79.83
2023-03-12T03:33:22.793Z,79.83
2023-03-12T03:38:25.279Z,79.92
2023-03-12T03:43:29.033Z,80.55
2023-03-12T03:48:31.979Z,81.86
2023-03-12T03:53:34.867Z,82.40
2023-03-12T03:58:38.596Z,82.65
2023-03-12T04:03:40.979Z,83.43
2023-03-12T04:08:43.158Z,83.78
2023-03-12T04:13:46.555Z,83.58
2023-03-12T04:18:48.729Z,83.54
2023-03-12T04:23:50.427Z,84.20
2023-03-12T04:28:53.902Z,84.82
2023-03-12T04:33:55.866Z,85.35
2023-03-12T04:39:01.390Z,86.29
2023-03-12T04:44:05.649Z,87.00
2023-03-12T04:49:07.803Z,87.76
2023-03-12T04:54:10.018Z,87.84
2023-03-12T04:59:13.444Z,89.16
2023-03-12T05:04:21.774Z,89.69
2023-03-12T05:09:23.873Z,91.17
2023-03-12T05:14:27.058Z,92.10
2023-03-12T05:19:28.811Z,92.36
2023-03-12T05:24:31.012Z,93.80
2023-03-12T05:29:34.687Z,94.28
2023-03-12T05:34:37.164Z,95.50
2023-03-12T05:39:39.165Z,95.12
2023-03-12T05:44:42.968Z,95.64
2023-03-12T05:49:45.231Z,96.65
2023-03-12T05:54:47.402Z,96.97
2023-03-12T05:59:50.908Z,96.62
2023-03-12T06:04:52.900Z,96.92
2023-03-12T06:09:55.414Z,96.88
2023-03-12T06:14:59.235Z,96.73
2023-03-12T06:20:01.027Z,96.42
2023-03-12T06:25:03.332Z,96.37
2023-03-12T06:30:08.284Z,95.69
2023-03-12T06:35:10.318Z,95.66
2023-03-12T06:40:13.323Z,95.25
2023-03-12T06:45:16.770Z,94.55
2023-03-12T06:50:18.733Z,93.22
2023-03-12T06:55:20.545Z,91.77
2023-03-12T07:00:24.536Z,89.77
2023-03-12T07:05:29.477Z,87.94
2023-03-12T07:10:32.389Z,87.55
2023-03-12T07:15:41.700Z,86.96
2023-03-12T07:20:44.601Z,85.44
2023-03-12T07:25:47.424Z,84.52
2023-03-12T07:30:51.275Z,83.15
2023-03-12T07:35:53.699Z,79.88
2023-03-12T07:40:57.743Z,79.00
2023-03-12T07:46:01.366Z,77.52
2023-03-12T07:51:03.532Z,76.92
2023-03-12T07:56:06.707Z,77.40
2023-03-12T08:01:09.931Z,76.57
2023-03-12T08:06:12.059Z,75.97
2023-03-12T08:11:14.244Z,76.08
2023-03-12T08:16:18.020Z,76.27
2023-03-12T08:21:20.122Z,76.00
2023-03-12T08:26:22.084Z,75.52
2023-03-12T08:31:25.224Z,74.19
2023-03-12T08:36:27.785Z,74.85
2023-03-12T08:41:29.700Z,73.67
2023-03-12T08:46:32.984Z,72.66
2023-03-12T08:51:35.137Z,71.52
2023-03-12T08:56:37.085Z,71.01
2023-03-12T09:01:43.633Z,69.12
2023-03-12T09:06:45.787Z,69.35
2023-03-12T09:11:48.517Z,68.75
2023-03-12T09:16:52.136Z,67.32
2023-03-12T09:21:54.275Z,66.42
2023-03-12T09:26:56.105Z,66.10
2023-03-12T09:32:00.103Z,66.50
2023-03-12T09:37:02.698Z,65.98
2023-03-12T09:42:07.566Z,65.63
2023-03-12T09:47:22.891Z,64.39
2023-03-12T09:52:29.923Z,62.13
2023-03-12T09:57:32.188Z,61.02
2023-03-12T10:02:55.568Z,54.75
2023-03-12T10:08:22.834Z,52.52
2023-03-12T10:13:49.914Z,51.79
2023-03-12T10:19:13.285Z,51.73
2023-03-12T10:24:27.271Z,50.03
2023-03-12T10:29:32.539Z,48.51
2023-03-12T10:34:43.024Z,46.39
2023-03-12T10:39:45.969Z,46.29
2023-03-12T10:44:51.164Z,46.41
2023-03-12T10:49:54.408Z,42.01
2023-03-12T10:54:56.144Z,37.89
2023-03-12T11:00:07.904Z,44.18
2023-03-12T11:05:22.551Z,37.57
2023-03-12T11:10:26.280Z,42.00
2023-03-12T11:15:30.850Z,47.45
2023-03-12T11:20:34.362Z,47.81
2023-03-12T11:25:36.446Z,46.03
2023-03-12T11:30:40.755Z,45.45
2023-03-12T11:35:52.265Z,46.68
2023-03-12T11:41:08.214Z,48.72
2023-03-12T11:46:23.090Z,49.23
2023-03-12T11:51:36.290Z,48.77
2023-03-12T11:56:45.488Z,49.49
2023-03-12T12:01:58.585Z,46.66
2023-03-12T12:07:12.370Z,43.19
2023-03-12T12:12:28.423Z,44.66
2023-03-12T12:17:44.451Z,44.82
2023-03-12T12:23:06.137Z,44.82
2023-03-12T12:28:26.791Z,43.03
2023-03-12T12:33:43.450Z,44.17
2023-03-12T12:38:52.742Z,44.35
2023-03-12T12:44:05.694Z,45.75
2023-03-12T12:49:12.808Z,44.51
2023-03-12T12:54:23.750Z,45.54
2023-03-12T12:59:37.863Z,46.90
2023-03-12T13:04:40.230Z,46.83
2023-03-12T13:09:45.892Z,47.00
2023-03-12T13:15:36.490Z,47.98
2023-03-12T13:20:45.554Z,49.56
2023-03-12T13:25:58.538Z,50.30
2023-03-12T13:31:04.049Z,50.34
2023-03-12T13:36:19.069Z,48.93
2023-03-12T13:41:31.924Z,48.71
2023-03-12T13:46:41.812Z,48.68
2023-03-12T13:51:47.884Z,48.82
2023-03-12T13:56:57.381Z,49.62
2023-03-12T14:02:21.315Z,50.78
2023-03-12T14:07:51.677Z,51.22
2023-03-12T14:13:02.623Z,52.95
2023-03-12T14:18:15.542Z,53.36
2023-03-12T14:23:18.084Z,54.78
2023-03-12T14:28:22.636Z,56.87
2023-03-12T14:33:27.355Z,57.17
2023-03-12T14:38:32.627Z,57.14
2023-03-12T14:43:35.731Z,57.99
2023-03-12T14:48:39.007Z,57.62
2023-03-12T14:53:40.841Z,58.27
2023-03-12T14:58:45.709Z,58.12
2023-03-12T15:03:53.208Z,57.92
2023-03-12T15:08:56.273Z,58.48
2023-03-12T15:14:05.985Z,59.47
2023-03-12T15:19:13.371Z,59.74
2023-03-12T15:24:17.205Z,58.51
2023-03-12T15:29:23.310Z,59.71
2023-03-12T15:34:32.995Z,59.81
2023-03-12T15:39:37.435Z,60.32
2023-03-12T15:44:45.749Z,62.20
2023-03-12T15:49:53.229Z,63.17
2023-03-12T15:55:05.656Z,67.34
2023-03-12T16:00:16.981Z,70.40
2023-03-12T16:05:22.814Z,72.89
2023-03-12T16:10:27.253Z,74.06
2023-03-12T16:15:31.943Z,75.82
2023-03-12T16:20:35.271Z,77.68
2023-03-12T16:25:37.557Z,78.69
2023-03-12T16:30:39.679Z,79.26
2023-03-12T16:35:42.914Z,79.28
2023-03-12T16:40:48.342Z,79.93
2023-03-12T16:45:52.815Z,79.98
2023-03-12T16:50:57.902Z,80.99
2023-03-12T16:56:02.007Z,83.71
2023-03-12T17:01:04.498Z,86.42
2023-03-12T17:06:14.934Z,89.41
2023-03-12T17:11:19.068Z,90.89
2023-03-12T17:16:20.964Z,92.71
2023-03-12T17:21:24.101Z,94.51
2023-03-12T17:26:26.204Z,95.84
2023-03-12T17:31:28.401Z,97.28
2023-03-12T17:36:31.810Z,98.23
2023-03-12T17:41:33.804Z,99.91
2023-03-12T17:46:36.310Z,100.00
2023-03-12T17:51:40.179Z,100.00
2023-03-12T17:56:42.362Z,100.00
2023-03-12T18:01:44.203Z,100.00
2023-03-12T18:06:47.320Z,100.00
2023-03-12T18:11:49.550Z,100.00
2023-03-12T18:16:51.375Z,100.00
2023-03-12T18:21:55.354Z,100.00
2023-03-12T18:26:57.399Z,100.00
2023-03-12T18:31:59.424Z,100.00
2023-03-12T18:37:03.083Z,100.00
2023-03-12T18:42:05.676Z,100.00
2023-03-12T18:47:07.981Z,100.00
2023-03-12T18:52:11.184Z,100.00
2023-03-12T18:57:13.037Z,100.00
2023-03-12T19:02:15.661Z,100.00
2023-03-12T19:07:19.022Z,100.00
2023-03-12T19:12:21.793Z,100.00
2023-03-12T19:17:24.111Z,100.00
2023-03-12T19:22:27.761Z,100.00
2023-03-12T19:27:30.059Z,100.00
2023-03-12T19:32:42.234Z,100.00
2023-03-12T19:37:47.677Z,100.00
2023-03-12T19:42:50.446Z,100.00
2023-03-12T19:47:53.081Z,100.00
2023-03-12T19:52:57.082Z,100.00
2023-03-12T19:58:00.542Z,100.00
2023-03-12T20:03:02.969Z,100.00
2023-03-12T20:08:07.181Z,100.00
2023-03-12T20:13:09.934Z,100.00
2023-03-12T20:18:12.466Z,100.00
2023-03-12T20:23:18.829Z,100.00
2023-03-12T20:28:22.100Z,100.00
2023-03-12T20:33:24.664Z,100.00
2023-03-12T20:38:28.511Z,100.00
2023-03-12T20:43:34.065Z,100.00
2023-03-12T20:48:37.063Z,100.00
2023-03-12T20:53:40.484Z,100.00
2023-03-12T20:58:42.680Z,100.00
2023-03-12T21:03:45.159Z,100.00
2023-03-12T21:08:48.633Z,100.00
2023-03-12T21:13:50.809Z,100.00
2023-03-12T21:18:56.153Z,100.00
2023-03-12T21:24:01.152Z,100.00
2023-03-12T21:29:03.905Z,100.00
2023-03-12T21:34:08.127Z,100.00
2023-03-12T21:39:13.072Z,100.00
2023-03-12T21:44:16.711Z,100.00
2023-03-12T21:49:19.010Z,100.00
2023-03-12T21:54:22.642Z,100.00
2023-03-12T21:59:24.860Z,100.00
2023-03-12T22:04:27.763Z,100.00
2023-03-12T22:09:31.449Z,100.00
2023-03-12T22:14:33.408Z,100.00
2023-03-12T22:19:35.511Z,100.00
2023-03-12T22:24:39.109Z,100.00
2023-03-12T22:29:41.535Z,100.00
2023-03-12T22:34:43.545Z,100.00
2023-03-12T22:39:47.173Z,100.00
2023-03-12T22:44:49.556Z,100.00
2023-03-12T22:49:51.746Z,100.00
2023-03-12T22:54:55.164Z,100.00
2023-03-12T22:59:57.622Z,100.00
2023-03-12T23:05:00.028Z,100.00
2023-03-12T23:10:04.614Z,100.00
2023-03-12T23:15:14.918Z,100.00
2023-03-12T23:20:16.904Z,100.00
2023-03-12T23:25:20.317Z,100.00
2023-03-12T23:30:22.846Z,100.00
2023-03-12T23:35:25.013Z,100.00
2023-03-12T23:40:28.589Z,100.00
2023-03-12T23:45:30.716Z,100.00
2023-03-12T23:50:33.461Z,100.00
2023-03-12T23:55:36.563Z,100.00
